sensor_id;sensor_type;location;lat;lon;timestamp;temperature;humidity
17944;DHT22;9097;47.028;15.444;2023-09-19T11:24:31;23.40;99.90
17944;DHT22;9097;47.028;15.444;2023-09-19T11:31:48;23.50;99.90
17944;DHT22;9097;47.028;15.444;2023-09-19T11:35:07;23.40;99.90
17944;DHT22;9097;47.028;15.444;2023-09-19T11:38:10;23.40;99.90
17944;DHT22;9097;47.028;15.444;2023-09-19T11:41:40;23.40;99.90
17944;DHT22;9097;47.028;15.444;2023-09-19T11:45:04;23.30;99.90
17944;DHT22;9097;47.028;15.444;2023-09-19T11:48:07;23.20;99.90
17944;DHT22;9097;47.028;15.444;2023-09-19T11:51:17;23.20;99.90
17944;DHT22;9097;47.028;15.444;2023-09-19T11:54:25;23.10;99.90
17944;DHT22;9097;47.028;15.444;2023-09-19T11:57:32;23.10;99.90
17944;DHT22;9097;47.028;15.444;2023-09-19T12:00:38;23.00;99.90
17944;DHT22;9097;47.028;15.444;2023-09-19T12:03:47;23.00;99.90
17944;DHT22;9097;47.028;15.444;2023-09-19T12:06:58;23.00;99.90
17944;DHT22;9097;47.028;15.444;2023-09-19T12:10:06;22.90;99.90
17944;DHT22;9097;47.028;15.444;2023-09-19T12:13:16;22.90;99.90
17944;DHT22;9097;47.028;15.444;2023-09-19T12:16:20;23.00;99.90
17944;DHT22;9097;47.028;15.444;2023-09-19T12:19:25;23.00;99.90
17944;DHT22;9097;47.028;15.444;2023-09-19T12:22:39;22.90;99.90
17944;DHT22;9097;47.028;15.444;2023-09-19T12:25:44;23.00;99.90
17944;DHT22;9097;47.028;15.444;2023-09-19T12:28:49;23.00;99.90
17944;DHT22;9097;47.028;15.444;2023-09-19T12:31:54;23.00;99.90
17944;DHT22;9097;47.028;15.444;2023-09-19T12:34:58;23.10;99.90
17944;DHT22;9097;47.028;15.444;2023-09-19T12:38:02;23.10;99.90
17944;DHT22;9097;47.028;15.444;2023-09-19T12:41:05;23.10;99.90
17944;DHT22;9097;47.028;15.444;2023-09-19T12:44:11;23.10;99.90
17944;DHT22;9097;47.028;15.444;2023-09-19T12:47:15;23.10;99.90
17944;DHT22;9097;47.028;15.444;2023-09-19T12:50:21;23.10;99.90
17944;DHT22;9097;47.028;15.444;2023-09-19T12:53:32;23.00;99.90
17944;DHT22;9097;47.028;15.444;2023-09-19T12:56:40;23.10;99.90
17944;DHT22;9097;47.028;15.444;2023-09-19T12:59:45;23.10;99.90
17944;DHT22;9097;47.028;15.444;2023-09-19T13:03:12;23.00;99.90
17944;DHT22;9097;47.028;15.444;2023-09-19T13:06:16;23.00;99.90
17944;DHT22;9097;47.028;15.444;2023-09-19T13:09:23;23.00;99.90
17944;DHT22;9097;47.028;15.444;2023-09-19T13:12:36;23.00;99.90
17944;DHT22;9097;47.028;15.444;2023-09-19T13:15:52;23.10;99.90
17944;DHT22;9097;47.028;15.444;2023-09-19T13:18:55;23.20;99.90
17944;DHT22;9097;47.028;15.444;2023-09-19T13:21:58;23.20;99.90
17944;DHT22;9097;47.028;15.444;2023-09-19T13:25:04;23.20;99.90
17944;DHT22;9097;47.028;15.444;2023-09-19T13:28:07;23.20;99.90
17944;DHT22;9097;47.028;15.444;2023-09-19T13:31:10;23.30;99.90
17944;DHT22;9097;47.028;15.444;2023-09-19T13:34:13;23.40;99.90
17944;DHT22;9097;47.028;15.444;2023-09-19T13:37:17;23.40;99.90
17944;DHT22;9097;47.028;15.444;2023-09-19T13:40:21;23.40;99.90
17944;DHT22;9097;47.028;15.444;2023-09-19T13:43:23;23.30;99.90
17944;DHT22;9097;47.028;15.444;2023-09-19T13:46:26;23.30;99.90
17944;DHT22;9097;47.028;15.444;2023-09-19T13:49:28;23.30;99.90
17944;DHT22;9097;47.028;15.444;2023-09-19T13:52:32;23.30;99.90
17944;DHT22;9097;47.028;15.444;2023-09-19T13:55:36;23.40;99.90
17944;DHT22;9097;47.028;15.444;2023-09-19T13:58:39;23.40;99.90
17944;DHT22;9097;47.028;15.444;2023-09-19T14:01:42;23.40;99.90
17944;DHT22;9097;47.028;15.444;2023-09-19T14:04:45;23.40;99.90
17944;DHT22;9097;47.028;15.444;2023-09-19T14:07:47;23.40;99.90
17944;DHT22;9097;47.028;15.444;2023-09-19T14:10:51;23.40;99.90
17944;DHT22;9097;47.028;15.444;2023-09-19T14:13:54;23.40;99.90
17944;DHT22;9097;47.028;15.444;2023-09-19T14:16:56;23.40;99.90
17944;DHT22;9097;47.028;15.444;2023-09-19T14:20:01;23.50;99.90
17944;DHT22;9097;47.028;15.444;2023-09-19T14:23:04;23.40;99.90
17944;DHT22;9097;47.028;15.444;2023-09-19T14:26:08;23.50;99.90
17944;DHT22;9097;47.028;15.444;2023-09-19T14:29:11;23.50;99.90
17944;DHT22;9097;47.028;15.444;2023-09-19T14:32:13;23.50;99.90
17944;DHT22;9097;47.028;15.444;2023-09-19T14:35:16;23.50;99.90
17944;DHT22;9097;47.028;15.444;2023-09-19T14:38:18;23.50;99.90
17944;DHT22;9097;47.028;15.444;2023-09-19T14:41:22;23.60;99.90
17944;DHT22;9097;47.028;15.444;2023-09-19T14:44:26;23.60;99.90
17944;DHT22;9097;47.028;15.444;2023-09-19T14:47:30;23.70;99.90
17944;DHT22;9097;47.028;15.444;2023-09-19T14:50:34;23.70;99.90
17944;DHT22;9097;47.028;15.444;2023-09-19T14:53:37;23.70;99.90
17944;DHT22;9097;47.028;15.444;2023-09-19T14:56:41;23.70;99.90
17944;DHT22;9097;47.028;15.444;2023-09-19T14:59:43;23.70;99.90
17944;DHT22;9097;47.028;15.444;2023-09-19T15:02:45;23.60;99.90
17944;DHT22;9097;47.028;15.444;2023-09-19T15:05:50;23.60;99.90
17944;DHT22;9097;47.028;15.444;2023-09-19T15:08:52;23.60;99.90
17944;DHT22;9097;47.028;15.444;2023-09-19T15:11:56;23.60;99.90
17944;DHT22;9097;47.028;15.444;2023-09-19T15:14:58;23.60;99.90
17944;DHT22;9097;47.028;15.444;2023-09-19T15:18:01;23.60;99.90
17944;DHT22;9097;47.028;15.444;2023-09-19T15:21:04;23.60;99.90
17944;DHT22;9097;47.028;15.444;2023-09-19T15:24:07;23.60;99.90
17944;DHT22;9097;47.028;15.444;2023-09-19T15:27:12;23.50;99.90
17944;DHT22;9097;47.028;15.444;2023-09-19T15:30:14;23.50;99.90
17944;DHT22;9097;47.028;15.444;2023-09-19T15:33:17;23.40;99.90
17944;DHT22;9097;47.028;15.444;2023-09-19T15:36:19;23.40;99.90
17944;DHT22;9097;47.028;15.444;2023-09-19T15:39:22;23.40;99.90
17944;DHT22;9097;47.028;15.444;2023-09-19T15:42:26;23.40;99.90
17944;DHT22;9097;47.028;15.444;2023-09-19T15:45:28;23.30;99.90
17944;DHT22;9097;47.028;15.444;2023-09-19T15:48:30;23.20;99.90
17944;DHT22;9097;47.028;15.444;2023-09-19T15:51:33;23.30;99.90
17944;DHT22;9097;47.028;15.444;2023-09-19T15:54:36;23.20;99.90
17944;DHT22;9097;47.028;15.444;2023-09-19T15:57:44;23.10;99.90
17944;DHT22;9097;47.028;15.444;2023-09-19T16:00:47;23.10;99.90
17944;DHT22;9097;47.028;15.444;2023-09-19T16:03:50;23.10;99.90
17944;DHT22;9097;47.028;15.444;2023-09-19T16:06:54;23.00;99.90
17944;DHT22;9097;47.028;15.444;2023-09-19T16:09:57;22.90;99.90
17944;DHT22;9097;47.028;15.444;2023-09-19T16:13:02;22.90;99.90
17944;DHT22;9097;47.028;15.444;2023-09-19T16:16:04;22.90;99.90
17944;DHT22;9097;47.028;15.444;2023-09-19T16:19:06;22.80;99.90
17944;DHT22;9097;47.028;15.444;2023-09-19T16:22:11;22.70;99.90
17944;DHT22;9097;47.028;15.444;2023-09-19T16:25:14;22.60;99.90
17944;DHT22;9097;47.028;15.444;2023-09-19T16:28:18;22.60;99.90
17944;DHT22;9097;47.028;15.444;2023-09-19T16:31:20;22.60;99.90
17944;DHT22;9097;47.028;15.444;2023-09-19T16:34:23;22.60;99.90
17944;DHT22;9097;47.028;15.444;2023-09-19T16:37:26;22.50;99.90
17944;DHT22;9097;47.028;15.444;2023-09-19T16:40:28;22.50;99.90
17944;DHT22;9097;47.028;15.444;2023-09-19T16:43:32;22.40;99.90
17944;DHT22;9097;47.028;15.444;2023-09-19T16:46:35;22.40;99.90
17944;DHT22;9097;47.028;15.444;2023-09-19T16:49:37;22.40;99.90
17944;DHT22;9097;47.028;15.444;2023-09-19T16:52:40;22.30;99.90
17944;DHT22;9097;47.028;15.444;2023-09-19T16:58:47;22.30;99.90
17944;DHT22;9097;47.028;15.444;2023-09-19T17:01:51;22.20;99.90
17944;DHT22;9097;47.028;15.444;2023-09-19T17:11:03;22.00;99.90
17944;DHT22;9097;47.028;15.444;2023-09-19T17:14:08;21.80;99.90
17944;DHT22;9097;47.028;15.444;2023-09-19T17:20:13;21.80;99.90
17944;DHT22;9097;47.028;15.444;2023-09-19T17:23:16;21.70;99.90
17944;DHT22;9097;47.028;15.444;2023-09-19T18:36:32;20.80;99.90
17944;DHT22;9097;47.028;15.444;2023-09-19T19:07:08;20.10;99.90
17944;DHT22;9097;47.028;15.444;2023-09-19T19:10:17;19.90;99.90
17944;DHT22;9097;47.028;15.444;2023-09-19T19:13:20;19.80;99.90
